»·PEaware :: N792VA KCRQ-KBWC

N792VA :: KCRQ-KBWC

FLIGHT INFORMATION

Flight Status: Arrived
Operator: Privately registered:
United States
More flights under this callsign
Pilot: Scott M. (16181)
Aircraft: Unknown
(P28U)
More flights by this aircraft type
Origin: KCRQ McClellan-Palomar
United States
Destination: KBWC Brawley Mun
United States
More flights between these airports :: More routes between these airports
Route:
File this flight plan on PilotEdge
Remarks:
Altitude:
(Current/Filed)
9,500ft
Speed:
(Current/Filed)
160kts
Departed: 11-Jun-18 04:59 PM
Arrived: 11-Jun-18 05:45 PM
Distance/Time
Traveled:
89nm/0:46
Distance/Time
To Go:
Arrived

Flight Plot

Page will automatically refresh every two minutes.

Flight plan parsing failed; only flown route is shown


Map Options




Map Legend


Flown Route
Filed Route
Departure Airport
Arrival Airport
Navaid (VOR, NDB)
Fix

Horizontal Profiles

Position Reports

Time Latitude Longitude Heading Altitude Ground
Speed
11-Jun-18 16:50 33.127067 -117.279502 345 308ft 0kts
11-Jun-18 16:51 33.127067 -117.279502 345 308ft 0kts
11-Jun-18 16:52 33.127067 -117.279502 345 308ft 0kts
11-Jun-18 16:53 33.127067 -117.279502 345 308ft 0kts
11-Jun-18 16:54 33.127067 -117.279502 345 308ft 0kts
11-Jun-18 16:55 33.127644 -117.278709 78 308ft 10kts
11-Jun-18 16:56 33.128352 -117.274307 79 306ft 19kts
11-Jun-18 16:57 33.128600 -117.272987 49 301ft 0kts
11-Jun-18 16:58 33.129435 -117.272888 255 304ft 13kts
11-Jun-18 16:59 33.125553 -117.296471 278 872ft 98kts
11-Jun-18 17:00 33.141597 -117.281249 74 1983ft 107kts
11-Jun-18 17:01 33.144361 -117.247040 93 3094ft 107kts
11-Jun-18 17:02 33.135559 -117.214352 117 4141ft 107kts
11-Jun-18 17:03 33.130427 -117.180072 92 5192ft 105kts
11-Jun-18 17:04 33.130484 -117.147632 89 6192ft 111kts
11-Jun-18 17:05 33.131075 -117.111369 88 7311ft 114kts
11-Jun-18 17:06 33.131773 -117.073147 89 8390ft 118kts
11-Jun-18 17:07 33.132551 -117.033245 87 9328ft 126kts
11-Jun-18 17:08 33.133867 -116.986385 89 9514ft 155kts
11-Jun-18 17:09 33.134729 -116.935467 89 9509ft 153kts
11-Jun-18 17:10 33.135585 -116.884584 89 9509ft 153kts
11-Jun-18 17:11 33.136421 -116.833700 89 9509ft 153kts
11-Jun-18 17:12 33.137232 -116.783143 89 9510ft 153kts
11-Jun-18 17:13 33.138026 -116.732250 89 9509ft 153kts
11-Jun-18 17:14 33.138716 -116.681281 89 9509ft 153kts
11-Jun-18 17:15 33.139352 -116.630574 89 9510ft 153kts
11-Jun-18 17:16 33.141082 -116.579664 80 9510ft 154kts
11-Jun-18 17:17 33.148835 -116.530700 79 9681ft 147kts
11-Jun-18 17:18 33.156702 -116.481457 79 9684ft 153kts
11-Jun-18 17:19 33.164623 -116.431642 79 9263ft 154kts
11-Jun-18 17:20 33.172576 -116.381516 79 8694ft 155kts
11-Jun-18 17:21 33.180475 -116.331752 80 7985ft 155kts
11-Jun-18 17:22 33.188429 -116.281454 80 7142ft 151kts
11-Jun-18 17:23 33.196104 -116.232892 80 6268ft 149kts
11-Jun-18 17:24 33.203539 -116.185821 79 5791ft 142kts
11-Jun-18 17:25 33.210846 -116.139222 80 5685ft 139kts
11-Jun-18 17:26 33.217923 -116.094037 80 5686ft 138kts
11-Jun-18 17:27 33.224942 -116.049073 80 5686ft 138kts
11-Jun-18 17:28 33.232358 -116.003672 79 5688ft 144kts
11-Jun-18 17:29 33.238343 -115.966620 79 5686ft 148kts
11-Jun-18 17:30 33.223828 -115.923638 123 5317ft 143kts
11-Jun-18 17:31 33.201259 -115.883733 123 4647ft 145kts
11-Jun-18 17:32 33.178650 -115.843973 123 4030ft 145kts
11-Jun-18 17:33 33.156217 -115.804551 123 3531ft 141kts
11-Jun-18 17:34 33.135585 -115.768301 123 3537ft 128kts
11-Jun-18 17:35 33.115599 -115.733252 123 3539ft 127kts
11-Jun-18 17:36 33.095618 -115.698244 123 3518ft 128kts
11-Jun-18 17:37 33.075341 -115.662254 126 3257ft 133kts
11-Jun-18 17:38 33.055297 -115.624698 123 2623ft 130kts
11-Jun-18 17:39 33.036487 -115.591269 123 1910ft 106kts
11-Jun-18 17:40 33.020408 -115.564419 123 1213ft 95kts
11-Jun-18 17:41 33.008716 -115.537921 98 840ft 84kts
11-Jun-18 17:42 33.008696 -115.509804 84 757ft 84kts
11-Jun-18 17:43 33.002013 -115.488165 192 580ft 80kts
11-Jun-18 17:44 32.992944 -115.510451 269 -104ft 83kts
11-Jun-18 17:45 32.992258 -115.516738 88 -121ft 7kts
11-Jun-18 17:46 32.991608 -115.513183 159 -121ft 10kts
11-Jun-18 17:47 32.991369 -115.512808 91 -120ft 0kts
11-Jun-18 17:48 32.991369 -115.512808 91 -120ft 0kts
11-Jun-18 17:49 32.991369 -115.512808 91 -120ft 0kts

Navigation Log

Ident Type
Flight plan parsing failed, navigation log unavailable